YFC VOHS-VOHS
Flight info
| Callsign | YFC |
|---|---|
| Flight time | N/A |
| Altitude | 6000 |
| Route | CIRCUITS |
| Aircraft | DA42/L-SBDGRY/S |
Departure
| Time | 2026-05-07 13:01 |
|---|---|
| Airport | Rajiv Gandhi International Airport (VOHS) |
Arrival
| Time | N/A |
|---|---|
| Airport | Rajiv Gandhi International Airport (VOHS) |
| Time | Latitude | Longitude | Altitude | Speed | Heading |
|---|---|---|---|---|---|
| 2026-05-07 12:53 | 17.23431 | 78.45057 | 2003 ft | 0 kts | 185° |
| 2026-05-07 12:57 | 17.23424 | 78.45040 | 2003 ft | 8 kts | 253° |
| 2026-05-07 12:57 | 17.23413 | 78.44938 | 2002 ft | 19 kts | 249° |
| 2026-05-07 12:58 | 17.23369 | 78.44923 | 2002 ft | 9 kts | 178° |
| 2026-05-07 12:58 | 17.23276 | 78.44924 | 2001 ft | 17 kts | 179° |
| 2026-05-07 12:58 | 17.23173 | 78.44926 | 2001 ft | 13 kts | 178° |
| 2026-05-07 12:58 | 17.23070 | 78.44928 | 2001 ft | 16 kts | 182° |
| 2026-05-07 12:59 | 17.23022 | 78.44928 | 2001 ft | 0 kts | 178° |
| 2026-05-07 12:59 | 17.22981 | 78.44929 | 2002 ft | 13 kts | 181° |
| 2026-05-07 13:00 | 17.22904 | 78.44852 | 2002 ft | 21 kts | 268° |
| 2026-05-07 13:00 | 17.22901 | 78.44546 | 1996 ft | 70 kts | 268° |
| 2026-05-07 13:00 | 17.22902 | 78.43950 | 2149 ft | 88 kts | 269° |
| 2026-05-07 13:00 | 17.22898 | 78.43296 | 2363 ft | 91 kts | 269° |
| 2026-05-07 13:01 | 17.22877 | 78.42672 | 2738 ft | 82 kts | 269° |
| 2026-05-07 13:01 | 17.22836 | 78.42079 | 2980 ft | 86 kts | 266° |
| 2026-05-07 13:01 | 17.22794 | 78.41436 | 3033 ft | 82 kts | 271° |
| 2026-05-07 13:01 | 17.22768 | 78.40870 | 2967 ft | 75 kts | 256° |
| 2026-05-07 13:02 | 17.22305 | 78.40672 | 2935 ft | 85 kts | 180° |
| 2026-05-07 13:02 | 17.21714 | 78.40857 | 3023 ft | 98 kts | 126° |
| 2026-05-07 13:02 | 17.21529 | 78.41555 | 3132 ft | 106 kts | 96° |
| 2026-05-07 13:02 | 17.21442 | 78.42416 | 3028 ft | 124 kts | 93° |
| 2026-05-07 13:03 | 17.21377 | 78.43293 | 3068 ft | 111 kts | 89° |
| 2026-05-07 13:03 | 17.21326 | 78.44168 | 3058 ft | 127 kts | 91° |
| 2026-05-07 13:03 | 17.21280 | 78.45128 | 3064 ft | 135 kts | 90° |
| 2026-05-07 13:03 | 17.21237 | 78.46078 | 3014 ft | 127 kts | 93° |
| 2026-05-07 13:04 | 17.21153 | 78.46961 | 2994 ft | 119 kts | 94° |
| 2026-05-07 13:04 | 17.21017 | 78.47764 | 3000 ft | 105 kts | 95° |
| 2026-05-07 13:04 | 17.20898 | 78.48510 | 2964 ft | 104 kts | 94° |
| 2026-05-07 13:04 | 17.20791 | 78.49212 | 2991 ft | 95 kts | 94° |
| 2026-05-07 13:05 | 17.20691 | 78.49873 | 2985 ft | 89 kts | 97° |
| 2026-05-07 13:05 | 17.20556 | 78.50522 | 2948 ft | 90 kts | 98° |
| 2026-05-07 13:05 | 17.20416 | 78.51173 | 2927 ft | 91 kts | 97° |
| 2026-05-07 13:05 | 17.20345 | 78.51843 | 2910 ft | 92 kts | 81° |
| 2026-05-07 13:06 | 17.20758 | 78.52258 | 2757 ft | 95 kts | 0° |
| 2026-05-07 13:06 | 17.21414 | 78.52196 | 2479 ft | 94 kts | 356° |
| 2026-05-07 13:06 | 17.22057 | 78.52139 | 2313 ft | 91 kts | 2° |
| 2026-05-07 13:06 | 17.22462 | 78.51863 | 2351 ft | 80 kts | 267° |
| 2026-05-07 13:07 | 17.22483 | 78.51253 | 2482 ft | 86 kts | 275° |
| 2026-05-07 13:07 | 17.22520 | 78.50594 | 2652 ft | 96 kts | 277° |
| 2026-05-07 13:07 | 17.22586 | 78.49959 | 2710 ft | 81 kts | 275° |
| 2026-05-07 13:07 | 17.22589 | 78.49364 | 2625 ft | 88 kts | 272° |
| 2026-05-07 13:08 | 17.22593 | 78.48710 | 2602 ft | 89 kts | 274° |
| 2026-05-07 13:08 | 17.22624 | 78.48071 | 2618 ft | 85 kts | 276° |
| 2026-05-07 13:08 | 17.22710 | 78.47483 | 2514 ft | 81 kts | 283° |
| 2026-05-07 13:08 | 17.22830 | 78.46895 | 2418 ft | 85 kts | 281° |
| 2026-05-07 13:09 | 17.22853 | 78.46266 | 2203 ft | 86 kts | 272° |
| 2026-05-07 13:09 | 17.22895 | 78.45666 | 2121 ft | 81 kts | 271° |
| 2026-05-07 13:09 | 17.22906 | 78.45092 | 2030 ft | 78 kts | 269° |
| 2026-05-07 13:09 | 17.22905 | 78.44551 | 1997 ft | 70 kts | 270° |
| 2026-05-07 13:10 | 17.22896 | 78.44070 | 1990 ft | 69 kts | 264° |
| 2026-05-07 13:10 | 17.22882 | 78.43487 | 2152 ft | 83 kts | 267° |
| 2026-05-07 13:10 | 17.22849 | 78.42866 | 2398 ft | 86 kts | 266° |
| 2026-05-07 13:10 | 17.22862 | 78.42263 | 2780 ft | 79 kts | 271° |
| 2026-05-07 13:11 | 17.22849 | 78.41693 | 3001 ft | 80 kts | 271° |
| 2026-05-07 13:11 | 17.22559 | 78.41255 | 3185 ft | 88 kts | 202° |
| 2026-05-07 13:11 | 17.21935 | 78.41161 | 3397 ft | 84 kts | 178° |
| 2026-05-07 13:11 | 17.21332 | 78.41198 | 3578 ft | 92 kts | 175° |
| 2026-05-07 13:12 | 17.20825 | 78.41487 | 3778 ft | 85 kts | 111° |
| 2026-05-07 13:12 | 17.20736 | 78.42121 | 3894 ft | 91 kts | 93° |
| 2026-05-07 13:12 | 17.20667 | 78.42694 | 3904 ft | 80 kts | 91° |
| 2026-05-07 13:12 | 17.20606 | 78.43297 | 3648 ft | 82 kts | 97° |
| 2026-05-07 13:13 | 17.20574 | 78.43936 | 3348 ft | 89 kts | 84° |
| 2026-05-07 13:13 | 17.20605 | 78.44591 | 3123 ft | 92 kts | 83° |
| 2026-05-07 13:13 | 17.20628 | 78.45225 | 3073 ft | 82 kts | 85° |
| 2026-05-07 13:13 | 17.20610 | 78.45805 | 2926 ft | 81 kts | 85° |
| 2026-05-07 13:14 | 17.20908 | 78.46222 | 2770 ft | 77 kts | 12° |
| 2026-05-07 13:14 | 17.21475 | 78.46247 | 2563 ft | 86 kts | 5° |
| 2026-05-07 13:14 | 17.22049 | 78.46192 | 2381 ft | 83 kts | 347° |
| 2026-05-07 13:14 | 17.22537 | 78.45852 | 2207 ft | 87 kts | 316° |
| 2026-05-07 13:15 | 17.22869 | 78.45334 | 2062 ft | 85 kts | 289° |
| 2026-05-07 13:15 | 17.22899 | 78.44766 | 2003 ft | 73 kts | 268° |
| 2026-05-07 13:15 | 17.22897 | 78.44285 | 1992 ft | 60 kts | 268° |
| 2026-05-07 13:15 | 17.22893 | 78.43756 | 2104 ft | 81 kts | 268° |
| 2026-05-07 13:16 | 17.22862 | 78.43128 | 2276 ft | 90 kts | 264° |
| 2026-05-07 13:16 | 17.22861 | 78.42466 | 2586 ft | 92 kts | 269° |
| 2026-05-07 13:16 | 17.22858 | 78.41779 | 2783 ft | 98 kts | 271° |
| 2026-05-07 13:16 | 17.22584 | 78.41153 | 2971 ft | 103 kts | 223° |
| 2026-05-07 13:17 | 17.21876 | 78.41019 | 3020 ft | 112 kts | 179° |
| 2026-05-07 13:17 | 17.21151 | 78.41235 | 3195 ft | 108 kts | 126° |
| 2026-05-07 13:17 | 17.20982 | 78.42015 | 3245 ft | 116 kts | 93° |
| 2026-05-07 13:17 | 17.20994 | 78.42893 | 3212 ft | 125 kts | 85° |
| 2026-05-07 13:18 | 17.21087 | 78.43771 | 3332 ft | 122 kts | 76° |
| 2026-05-07 13:18 | 17.21222 | 78.44688 | 3354 ft | 131 kts | 81° |
| 2026-05-07 13:18 | 17.21320 | 78.45636 | 3357 ft | 133 kts | 82° |
| 2026-05-07 13:18 | 17.21393 | 78.46529 | 3090 ft | 114 kts | 83° |
| 2026-05-07 13:19 | 17.21427 | 78.47274 | 2975 ft | 90 kts | 81° |
| 2026-05-07 13:19 | 17.21791 | 78.47605 | 2880 ft | 67 kts | 2° |
| 2026-05-07 13:19 | 17.22230 | 78.47505 | 2675 ft | 66 kts | 344° |
| 2026-05-07 13:20 | 17.23090 | 78.46202 | 2166 ft | 79 kts | 273° |
| 2026-05-07 13:20 | 17.23110 | 78.45707 | 2071 ft | 59 kts | 266° |